sensor_id;sensor_type;location;lat;lon;timestamp;temperature;humidity
14737;DHT22;7459;53.590;10.062;2023-03-14T00:00:48;12.00;99.90
14737;DHT22;7459;53.590;10.062;2023-03-14T00:03:13;12.00;99.90
14737;DHT22;7459;53.590;10.062;2023-03-14T00:05:39;12.00;99.90
14737;DHT22;7459;53.590;10.062;2023-03-14T00:08:05;11.90;99.90
14737;DHT22;7459;53.590;10.062;2023-03-14T00:10:31;11.90;99.90
14737;DHT22;7459;53.590;10.062;2023-03-14T00:12:56;11.90;99.90
14737;DHT22;7459;53.590;10.062;2023-03-14T00:15:22;11.90;99.90
14737;DHT22;7459;53.590;10.062;2023-03-14T00:17:48;11.90;99.90
14737;DHT22;7459;53.590;10.062;2023-03-14T00:20:13;11.90;99.90
14737;DHT22;7459;53.590;10.062;2023-03-14T00:22:40;11.80;99.90
14737;DHT22;7459;53.590;10.062;2023-03-14T00:25:07;11.80;99.90
14737;DHT22;7459;53.590;10.062;2023-03-14T00:27:34;11.80;99.90
14737;DHT22;7459;53.590;10.062;2023-03-14T00:30:00;11.80;99.90
14737;DHT22;7459;53.590;10.062;2023-03-14T00:32:26;11.80;99.90
14737;DHT22;7459;53.590;10.062;2023-03-14T00:34:52;11.80;99.90
14737;DHT22;7459;53.590;10.062;2023-03-14T00:37:18;11.80;99.90
14737;DHT22;7459;53.590;10.062;2023-03-14T00:39:43;11.70;99.90
14737;DHT22;7459;53.590;10.062;2023-03-14T00:42:09;12.30;99.90
14737;DHT22;7459;53.590;10.062;2023-03-14T00:44:35;11.80;99.90
14737;DHT22;7459;53.590;10.062;2023-03-14T00:47:01;11.70;99.90
14737;DHT22;7459;53.590;10.062;2023-03-14T00:49:27;11.70;99.90
14737;DHT22;7459;53.590;10.062;2023-03-14T00:51:52;11.70;99.90
14737;DHT22;7459;53.590;10.062;2023-03-14T00:54:19;11.70;99.90
14737;DHT22;7459;53.590;10.062;2023-03-14T00:56:45;11.80;99.90
14737;DHT22;7459;53.590;10.062;2023-03-14T00:59:11;11.80;99.90
14737;DHT22;7459;53.590;10.062;2023-03-14T01:01:37;11.80;99.90
14737;DHT22;7459;53.590;10.062;2023-03-14T01:04:03;11.80;99.90
14737;DHT22;7459;53.590;10.062;2023-03-14T01:06:29;11.90;99.90
14737;DHT22;7459;53.590;10.062;2023-03-14T01:08:55;11.90;99.90
14737;DHT22;7459;53.590;10.062;2023-03-14T01:11:27;11.90;99.90
14737;DHT22;7459;53.590;10.062;2023-03-14T01:13:54;11.90;99.90
14737;DHT22;7459;53.590;10.062;2023-03-14T01:16:22;11.90;99.90
14737;DHT22;7459;53.590;10.062;2023-03-14T01:18:49;11.90;99.90
14737;DHT22;7459;53.590;10.062;2023-03-14T01:21:21;11.90;99.90
14737;DHT22;7459;53.590;10.062;2023-03-14T01:23:49;11.90;99.90
14737;DHT22;7459;53.590;10.062;2023-03-14T01:26:17;11.90;99.90
14737;DHT22;7459;53.590;10.062;2023-03-14T01:28:45;11.90;99.90
14737;DHT22;7459;53.590;10.062;2023-03-14T01:31:12;11.90;99.90
14737;DHT22;7459;53.590;10.062;2023-03-14T01:33:39;12.10;99.90
14737;DHT22;7459;53.590;10.062;2023-03-14T01:36:06;11.90;99.90
14737;DHT22;7459;53.590;10.062;2023-03-14T01:38:33;11.90;99.90
14737;DHT22;7459;53.590;10.062;2023-03-14T01:41:01;11.90;99.90
14737;DHT22;7459;53.590;10.062;2023-03-14T01:43:28;12.00;99.90
14737;DHT22;7459;53.590;10.062;2023-03-14T01:48:37;11.90;99.90
14737;DHT22;7459;53.590;10.062;2023-03-14T01:51:10;11.90;99.90
14737;DHT22;7459;53.590;10.062;2023-03-14T01:53:42;11.90;99.90
14737;DHT22;7459;53.590;10.062;2023-03-14T01:56:09;11.90;99.90
14737;DHT22;7459;53.590;10.062;2023-03-14T01:58:37;11.90;99.90
14737;DHT22;7459;53.590;10.062;2023-03-14T02:01:04;11.90;99.90
14737;DHT22;7459;53.590;10.062;2023-03-14T02:03:37;11.90;99.90
14737;DHT22;7459;53.590;10.062;2023-03-14T02:06:08;11.90;99.90
14737;DHT22;7459;53.590;10.062;2023-03-14T02:08:35;11.90;99.90
14737;DHT22;7459;53.590;10.062;2023-03-14T02:11:04;11.90;99.90
14737;DHT22;7459;53.590;10.062;2023-03-14T02:13:29;11.90;99.90
14737;DHT22;7459;53.590;10.062;2023-03-14T02:15:55;11.80;99.90
14737;DHT22;7459;53.590;10.062;2023-03-14T02:18:21;11.80;99.90
14737;DHT22;7459;53.590;10.062;2023-03-14T02:20:54;11.80;99.90
14737;DHT22;7459;53.590;10.062;2023-03-14T02:23:38;11.80;99.90
14737;DHT22;7459;53.590;10.062;2023-03-14T02:26:27;11.80;99.90
14737;DHT22;7459;53.590;10.062;2023-03-14T02:28:57;11.80;99.90
14737;DHT22;7459;53.590;10.062;2023-03-14T02:31:23;11.80;99.90
14737;DHT22;7459;53.590;10.062;2023-03-14T02:33:50;11.70;99.90
14737;DHT22;7459;53.590;10.062;2023-03-14T02:36:17;11.70;99.90
14737;DHT22;7459;53.590;10.062;2023-03-14T02:39:48;11.70;99.90
14737;DHT22;7459;53.590;10.062;2023-03-14T02:41:47;11.60;99.90
14737;DHT22;7459;53.590;10.062;2023-03-14T02:44:14;11.60;99.90
14737;DHT22;7459;53.590;10.062;2023-03-14T02:46:40;11.70;99.90
14737;DHT22;7459;53.590;10.062;2023-03-14T02:49:12;11.60;99.90
14737;DHT22;7459;53.590;10.062;2023-03-14T02:51:40;11.40;99.90
14737;DHT22;7459;53.590;10.062;2023-03-14T02:54:07;11.50;99.90
14737;DHT22;7459;53.590;10.062;2023-03-14T02:56:33;11.40;99.90
14737;DHT22;7459;53.590;10.062;2023-03-14T02:58:58;11.40;99.90
14737;DHT22;7459;53.590;10.062;2023-03-14T03:01:24;11.40;99.90
14737;DHT22;7459;53.590;10.062;2023-03-14T03:03:50;11.40;99.90
14737;DHT22;7459;53.590;10.062;2023-03-14T03:06:16;11.40;99.90
14737;DHT22;7459;53.590;10.062;2023-03-14T03:08:42;11.40;99.90
14737;DHT22;7459;53.590;10.062;2023-03-14T03:11:07;11.50;99.90
14737;DHT22;7459;53.590;10.062;2023-03-14T03:13:34;11.50;99.90
14737;DHT22;7459;53.590;10.062;2023-03-14T03:16:00;11.50;99.90
14737;DHT22;7459;53.590;10.062;2023-03-14T03:18:25;11.50;99.90
14737;DHT22;7459;53.590;10.062;2023-03-14T03:20:51;11.50;99.90
14737;DHT22;7459;53.590;10.062;2023-03-14T03:23:17;11.60;99.90
14737;DHT22;7459;53.590;10.062;2023-03-14T03:25:50;11.60;99.90
14737;DHT22;7459;53.590;10.062;2023-03-14T03:28:17;11.60;99.90
14737;DHT22;7459;53.590;10.062;2023-03-14T03:30:44;11.60;99.90
14737;DHT22;7459;53.590;10.062;2023-03-14T03:33:12;11.60;99.90
14737;DHT22;7459;53.590;10.062;2023-03-14T03:35:45;11.60;99.90
14737;DHT22;7459;53.590;10.062;2023-03-14T03:38:12;11.60;99.90
14737;DHT22;7459;53.590;10.062;2023-03-14T03:40:38;11.60;99.90
14737;DHT22;7459;53.590;10.062;2023-03-14T03:43:04;11.60;99.90
14737;DHT22;7459;53.590;10.062;2023-03-14T03:45:30;11.60;99.90
14737;DHT22;7459;53.590;10.062;2023-03-14T03:47:56;11.60;99.90
14737;DHT22;7459;53.590;10.062;2023-03-14T03:50:21;11.60;99.90
14737;DHT22;7459;53.590;10.062;2023-03-14T03:52:47;11.60;99.90
14737;DHT22;7459;53.590;10.062;2023-03-14T03:55:13;11.60;99.90
14737;DHT22;7459;53.590;10.062;2023-03-14T03:57:38;11.60;99.90
14737;DHT22;7459;53.590;10.062;2023-03-14T04:00:05;11.60;99.90
14737;DHT22;7459;53.590;10.062;2023-03-14T04:02:32;11.60;99.90
14737;DHT22;7459;53.590;10.062;2023-03-14T04:04:58;11.60;99.90
14737;DHT22;7459;53.590;10.062;2023-03-14T04:07:23;11.60;99.90
14737;DHT22;7459;53.590;10.062;2023-03-14T04:09:49;11.60;99.90
14737;DHT22;7459;53.590;10.062;2023-03-14T04:12:15;11.60;99.90
14737;DHT22;7459;53.590;10.062;2023-03-14T04:14:40;11.60;99.90
14737;DHT22;7459;53.590;10.062;2023-03-14T04:17:06;11.60;99.90
14737;DHT22;7459;53.590;10.062;2023-03-14T04:19:32;11.60;99.90
14737;DHT22;7459;53.590;10.062;2023-03-14T04:21:58;11.60;99.90
14737;DHT22;7459;53.590;10.062;2023-03-14T04:24:24;11.50;99.90
14737;DHT22;7459;53.590;10.062;2023-03-14T04:26:49;11.50;99.90
14737;DHT22;7459;53.590;10.062;2023-03-14T04:29:15;11.50;99.90
14737;DHT22;7459;53.590;10.062;2023-03-14T04:31:41;11.50;99.90
14737;DHT22;7459;53.590;10.062;2023-03-14T04:34:06;11.50;99.90
14737;DHT22;7459;53.590;10.062;2023-03-14T04:36:32;11.50;99.90
14737;DHT22;7459;53.590;10.062;2023-03-14T04:38:58;11.50;99.90
14737;DHT22;7459;53.590;10.062;2023-03-14T04:41:23;11.50;99.90
14737;DHT22;7459;53.590;10.062;2023-03-14T04:43:49;11.50;99.90
14737;DHT22;7459;53.590;10.062;2023-03-14T04:46:15;11.50;99.90
14737;DHT22;7459;53.590;10.062;2023-03-14T04:48:41;11.60;99.90
14737;DHT22;7459;53.590;10.062;2023-03-14T04:51:07;11.50;99.90
14737;DHT22;7459;53.590;10.062;2023-03-14T04:53:32;11.50;99.90
14737;DHT22;7459;53.590;10.062;2023-03-14T04:55:59;11.50;99.90
14737;DHT22;7459;53.590;10.062;2023-03-14T04:58:25;11.50;99.90
14737;DHT22;7459;53.590;10.062;2023-03-14T05:00:50;11.50;99.90
14737;DHT22;7459;53.590;10.062;2023-03-14T05:03:17;11.50;99.90
14737;DHT22;7459;53.590;10.062;2023-03-14T05:05:44;11.50;99.90
14737;DHT22;7459;53.590;10.062;2023-03-14T05:08:10;11.50;99.90
14737;DHT22;7459;53.590;10.062;2023-03-14T05:10:36;11.50;99.90
14737;DHT22;7459;53.590;10.062;2023-03-14T05:13:02;11.50;99.90
14737;DHT22;7459;53.590;10.062;2023-03-14T05:15:28;11.40;99.90
14737;DHT22;7459;53.590;10.062;2023-03-14T05:17:53;11.30;99.90
14737;DHT22;7459;53.590;10.062;2023-03-14T05:20:22;11.30;99.90
14737;DHT22;7459;53.590;10.062;2023-03-14T05:22:47;11.10;99.90
14737;DHT22;7459;53.590;10.062;2023-03-14T05:25:13;11.10;99.90
14737;DHT22;7459;53.590;10.062;2023-03-14T05:27:39;10.80;99.90
14737;DHT22;7459;53.590;10.062;2023-03-14T05:30:06;10.70;99.90
14737;DHT22;7459;53.590;10.062;2023-03-14T05:32:32;10.70;99.90
14737;DHT22;7459;53.590;10.062;2023-03-14T05:34:58;10.70;99.90
14737;DHT22;7459;53.590;10.062;2023-03-14T05:37:27;10.70;99.90
14737;DHT22;7459;53.590;10.062;2023-03-14T05:39:53;10.70;99.90
14737;DHT22;7459;53.590;10.062;2023-03-14T05:42:19;10.70;99.90
14737;DHT22;7459;53.590;10.062;2023-03-14T05:44:45;10.70;99.90
14737;DHT22;7459;53.590;10.062;2023-03-14T05:47:11;10.60;99.90
14737;DHT22;7459;53.590;10.062;2023-03-14T05:49:36;10.60;99.90
14737;DHT22;7459;53.590;10.062;2023-03-14T05:52:02;10.60;99.90
14737;DHT22;7459;53.590;10.062;2023-03-14T05:54:28;10.60;99.90
14737;DHT22;7459;53.590;10.062;2023-03-14T05:56:53;10.60;99.90
14737;DHT22;7459;53.590;10.062;2023-03-14T05:59:19;10.60;99.90
14737;DHT22;7459;53.590;10.062;2023-03-14T06:01:45;10.60;99.90
14737;DHT22;7459;53.590;10.062;2023-03-14T06:04:11;10.60;99.90
14737;DHT22;7459;53.590;10.062;2023-03-14T06:06:36;10.60;99.90
14737;DHT22;7459;53.590;10.062;2023-03-14T06:09:02;10.60;99.90
14737;DHT22;7459;53.590;10.062;2023-03-14T06:11:28;10.60;99.90
14737;DHT22;7459;53.590;10.062;2023-03-14T06:13:53;10.60;99.90
14737;DHT22;7459;53.590;10.062;2023-03-14T06:16:19;10.60;99.90
14737;DHT22;7459;53.590;10.062;2023-03-14T06:18:45;10.60;99.90
14737;DHT22;7459;53.590;10.062;2023-03-14T06:21:14;10.60;99.90
14737;DHT22;7459;53.590;10.062;2023-03-14T06:23:40;10.60;99.90
14737;DHT22;7459;53.590;10.062;2023-03-14T06:26:06;10.60;99.90
14737;DHT22;7459;53.590;10.062;2023-03-14T06:28:32;10.60;99.90
14737;DHT22;7459;53.590;10.062;2023-03-14T06:30:59;10.60;99.90
14737;DHT22;7459;53.590;10.062;2023-03-14T06:33:25;10.70;99.90
14737;DHT22;7459;53.590;10.062;2023-03-14T06:35:50;10.70;99.90
14737;DHT22;7459;53.590;10.062;2023-03-14T06:38:16;10.70;99.90
14737;DHT22;7459;53.590;10.062;2023-03-14T06:40:42;10.60;99.90
14737;DHT22;7459;53.590;10.062;2023-03-14T06:43:07;10.60;99.90
14737;DHT22;7459;53.590;10.062;2023-03-14T06:45:33;10.60;99.90
14737;DHT22;7459;53.590;10.062;2023-03-14T06:47:59;10.60;99.90
14737;DHT22;7459;53.590;10.062;2023-03-14T06:50:24;10.60;99.90
14737;DHT22;7459;53.590;10.062;2023-03-14T06:52:50;10.70;99.90
14737;DHT22;7459;53.590;10.062;2023-03-14T06:55:16;10.60;99.90
14737;DHT22;7459;53.590;10.062;2023-03-14T06:57:42;10.70;99.90
14737;DHT22;7459;53.590;10.062;2023-03-14T07:00:09;10.60;99.90
14737;DHT22;7459;53.590;10.062;2023-03-14T07:02:36;10.60;99.90
14737;DHT22;7459;53.590;10.062;2023-03-14T07:05:02;10.60;99.90
14737;DHT22;7459;53.590;10.062;2023-03-14T07:07:28;10.60;99.90
14737;DHT22;7459;53.590;10.062;2023-03-14T07:09:54;10.60;99.90
14737;DHT22;7459;53.590;10.062;2023-03-14T07:12:20;10.60;99.90
14737;DHT22;7459;53.590;10.062;2023-03-14T07:14:46;10.60;99.90
14737;DHT22;7459;53.590;10.062;2023-03-14T07:17:11;10.60;99.90
14737;DHT22;7459;53.590;10.062;2023-03-14T07:19:37;10.60;99.90
14737;DHT22;7459;53.590;10.062;2023-03-14T07:22:06;10.60;99.90
14737;DHT22;7459;53.590;10.062;2023-03-14T07:24:32;10.60;99.90
14737;DHT22;7459;53.590;10.062;2023-03-14T07:26:57;10.60;99.90
14737;DHT22;7459;53.590;10.062;2023-03-14T07:29:23;10.60;99.90
14737;DHT22;7459;53.590;10.062;2023-03-14T07:31:49;10.60;99.90
14737;DHT22;7459;53.590;10.062;2023-03-14T07:34:15;10.60;99.90
14737;DHT22;7459;53.590;10.062;2023-03-14T07:36:40;10.60;99.90
14737;DHT22;7459;53.590;10.062;2023-03-14T07:39:06;10.70;99.90
14737;DHT22;7459;53.590;10.062;2023-03-14T07:41:32;10.70;99.90
14737;DHT22;7459;53.590;10.062;2023-03-14T07:43:58;10.70;99.90
14737;DHT22;7459;53.590;10.062;2023-03-14T07:46:24;10.70;99.90
14737;DHT22;7459;53.590;10.062;2023-03-14T07:48:49;10.70;99.90
14737;DHT22;7459;53.590;10.062;2023-03-14T07:51:15;10.70;99.90
14737;DHT22;7459;53.590;10.062;2023-03-14T07:53:41;10.70;99.90
14737;DHT22;7459;53.590;10.062;2023-03-14T07:56:08;10.70;99.90
14737;DHT22;7459;53.590;10.062;2023-03-14T07:58:34;10.70;99.90
14737;DHT22;7459;53.590;10.062;2023-03-14T08:01:00;10.70;99.90
14737;DHT22;7459;53.590;10.062;2023-03-14T08:03:25;10.70;99.90
14737;DHT22;7459;53.590;10.062;2023-03-14T08:05:51;10.70;99.90
14737;DHT22;7459;53.590;10.062;2023-03-14T08:08:17;10.60;99.90
14737;DHT22;7459;53.590;10.062;2023-03-14T08:10:43;10.70;99.90
14737;DHT22;7459;53.590;10.062;2023-03-14T08:13:09;10.70;99.90
14737;DHT22;7459;53.590;10.062;2023-03-14T08:15:35;10.70;99.90
14737;DHT22;7459;53.590;10.062;2023-03-14T08:18:02;10.70;99.90
14737;DHT22;7459;53.590;10.062;2023-03-14T08:20:29;10.70;99.90
14737;DHT22;7459;53.590;10.062;2023-03-14T08:23:00;10.80;99.90
14737;DHT22;7459;53.590;10.062;2023-03-14T08:25:26;10.80;99.90
14737;DHT22;7459;53.590;10.062;2023-03-14T08:27:53;10.90;99.90
14737;DHT22;7459;53.590;10.062;2023-03-14T08:30:20;10.90;99.90
14737;DHT22;7459;53.590;10.062;2023-03-14T08:32:46;10.90;99.90
14737;DHT22;7459;53.590;10.062;2023-03-14T08:35:13;10.80;99.90
14737;DHT22;7459;53.590;10.062;2023-03-14T08:37:39;10.90;99.90
14737;DHT22;7459;53.590;10.062;2023-03-14T08:40:06;10.90;99.90
14737;DHT22;7459;53.590;10.062;2023-03-14T08:42:34;10.90;99.90
14737;DHT22;7459;53.590;10.062;2023-03-14T08:45:00;10.90;99.90
14737;DHT22;7459;53.590;10.062;2023-03-14T08:47:26;10.90;99.90
14737;DHT22;7459;53.590;10.062;2023-03-14T08:49:51;10.90;99.90
14737;DHT22;7459;53.590;10.062;2023-03-14T08:52:17;10.90;99.90
14737;DHT22;7459;53.590;10.062;2023-03-14T08:54:47;10.90;99.90
14737;DHT22;7459;53.590;10.062;2023-03-14T08:57:12;10.90;99.90
14737;DHT22;7459;53.590;10.062;2023-03-14T08:59:38;10.90;99.90
14737;DHT22;7459;53.590;10.062;2023-03-14T09:02:04;10.90;99.90
14737;DHT22;7459;53.590;10.062;2023-03-14T09:04:32;10.90;99.90
14737;DHT22;7459;53.590;10.062;2023-03-14T09:06:58;10.90;99.90
14737;DHT22;7459;53.590;10.062;2023-03-14T09:09:25;10.90;99.90
14737;DHT22;7459;53.590;10.062;2023-03-14T09:11:54;10.90;99.90
14737;DHT22;7459;53.590;10.062;2023-03-14T09:14:19;10.90;99.90
14737;DHT22;7459;53.590;10.062;2023-03-14T09:16:45;10.80;99.90
14737;DHT22;7459;53.590;10.062;2023-03-14T09:19:11;10.90;99.90
14737;DHT22;7459;53.590;10.062;2023-03-14T09:21:36;10.90;99.90
14737;DHT22;7459;53.590;10.062;2023-03-14T09:24:04;10.90;99.90
14737;DHT22;7459;53.590;10.062;2023-03-14T09:26:30;10.90;99.90
14737;DHT22;7459;53.590;10.062;2023-03-14T09:28:56;10.90;99.90
14737;DHT22;7459;53.590;10.062;2023-03-14T09:31:22;10.90;99.90
14737;DHT22;7459;53.590;10.062;2023-03-14T09:33:48;10.90;99.90
14737;DHT22;7459;53.590;10.062;2023-03-14T09:36:13;10.90;99.90
14737;DHT22;7459;53.590;10.062;2023-03-14T09:38:39;10.80;99.90
14737;DHT22;7459;53.590;10.062;2023-03-14T09:41:18;10.90;99.90
14737;DHT22;7459;53.590;10.062;2023-03-14T09:44:05;10.90;99.90
14737;DHT22;7459;53.590;10.062;2023-03-14T09:46:38;10.90;99.90
14737;DHT22;7459;53.590;10.062;2023-03-14T09:51:49;10.90;99.90
14737;DHT22;7459;53.590;10.062;2023-03-14T09:54:43;10.90;99.90
14737;DHT22;7459;53.590;10.062;2023-03-14T09:57:17;10.90;99.90
14737;DHT22;7459;53.590;10.062;2023-03-14T09:59:45;10.50;99.90
14737;DHT22;7459;53.590;10.062;2023-03-14T10:02:25;10.10;99.90
14737;DHT22;7459;53.590;10.062;2023-03-14T10:04:54;9.80;99.90
14737;DHT22;7459;53.590;10.062;2023-03-14T10:07:31;9.60;99.90
14737;DHT22;7459;53.590;10.062;2023-03-14T10:10:00;9.40;99.90
14737;DHT22;7459;53.590;10.062;2023-03-14T10:12:36;9.40;99.90
14737;DHT22;7459;53.590;10.062;2023-03-14T10:15:07;9.20;99.90
14737;DHT22;7459;53.590;10.062;2023-03-14T10:17:43;9.20;99.90
14737;DHT22;7459;53.590;10.062;2023-03-14T10:20:31;8.90;99.90
14737;DHT22;7459;53.590;10.062;2023-03-14T10:25:35;8.60;99.90
14737;DHT22;7459;53.590;10.062;2023-03-14T10:28:03;8.40;99.90
14737;DHT22;7459;53.590;10.062;2023-03-14T10:30:38;8.20;99.90
14737;DHT22;7459;53.590;10.062;2023-03-14T10:33:21;8.00;99.90
14737;DHT22;7459;53.590;10.062;2023-03-14T10:35:54;7.90;99.90
14737;DHT22;7459;53.590;10.062;2023-03-14T10:38:23;7.60;99.90
14737;DHT22;7459;53.590;10.062;2023-03-14T10:40:53;7.40;99.90
14737;DHT22;7459;53.590;10.062;2023-03-14T10:43:23;7.30;99.90
14737;DHT22;7459;53.590;10.062;2023-03-14T10:46:06;7.10;99.90
14737;DHT22;7459;53.590;10.062;2023-03-14T10:48:38;7.10;99.90
14737;DHT22;7459;53.590;10.062;2023-03-14T10:51:11;6.90;99.90
14737;DHT22;7459;53.590;10.062;2023-03-14T10:53:56;6.90;99.90
14737;DHT22;7459;53.590;10.062;2023-03-14T10:56:27;6.80;99.90
14737;DHT22;7459;53.590;10.062;2023-03-14T10:58:58;6.80;99.90
14737;DHT22;7459;53.590;10.062;2023-03-14T11:05:01;6.70;99.90
14737;DHT22;7459;53.590;10.062;2023-03-14T11:07:43;6.60;99.90
14737;DHT22;7459;53.590;10.062;2023-03-14T11:10:19;6.60;99.90
14737;DHT22;7459;53.590;10.062;2023-03-14T11:19:00;6.40;99.90
14737;DHT22;7459;53.590;10.062;2023-03-14T11:21:54;6.30;99.90
14737;DHT22;7459;53.590;10.062;2023-03-14T11:27:41;6.40;99.90
14737;DHT22;7459;53.590;10.062;2023-03-14T11:33:34;6.40;99.90
14737;DHT22;7459;53.590;10.062;2023-03-14T11:36:10;6.30;99.90
14737;DHT22;7459;53.590;10.062;2023-03-14T11:38:52;6.20;99.90
14737;DHT22;7459;53.590;10.062;2023-03-14T11:41:39;6.20;99.90
14737;DHT22;7459;53.590;10.062;2023-03-14T11:44:19;6.10;99.90
14737;DHT22;7459;53.590;10.062;2023-03-14T11:47:19;6.10;99.90
14737;DHT22;7459;53.590;10.062;2023-03-14T11:50:04;6.20;99.90
14737;DHT22;7459;53.590;10.062;2023-03-14T11:52:49;6.30;99.90
14737;DHT22;7459;53.590;10.062;2023-03-14T11:55:24;6.30;99.90
14737;DHT22;7459;53.590;10.062;2023-03-14T11:57:56;6.30;99.90
14737;DHT22;7459;53.590;10.062;2023-03-14T12:00:25;6.40;99.90
14737;DHT22;7459;53.590;10.062;2023-03-14T12:11:36;6.50;99.90
14737;DHT22;7459;53.590;10.062;2023-03-14T12:14:32;6.50;99.90
14737;DHT22;7459;53.590;10.062;2023-03-14T12:17:23;6.50;99.90
14737;DHT22;7459;53.590;10.062;2023-03-14T12:20:17;6.60;99.90
14737;DHT22;7459;53.590;10.062;2023-03-14T12:22:56;6.60;99.90
14737;DHT22;7459;53.590;10.062;2023-03-14T12:25:32;6.60;99.90
14737;DHT22;7459;53.590;10.062;2023-03-14T12:28:29;6.70;99.90
14737;DHT22;7459;53.590;10.062;2023-03-14T12:30:56;6.80;99.90
14737;DHT22;7459;53.590;10.062;2023-03-14T12:33:28;6.80;99.90
14737;DHT22;7459;53.590;10.062;2023-03-14T12:36:00;6.80;99.90
14737;DHT22;7459;53.590;10.062;2023-03-14T12:41:03;6.70;99.90
14737;DHT22;7459;53.590;10.062;2023-03-14T12:43:36;6.50;99.90
14737;DHT22;7459;53.590;10.062;2023-03-14T12:46:18;6.50;99.90
14737;DHT22;7459;53.590;10.062;2023-03-14T12:48:54;6.50;99.90
14737;DHT22;7459;53.590;10.062;2023-03-14T12:51:33;6.50;99.90
14737;DHT22;7459;53.590;10.062;2023-03-14T12:56:53;6.70;99.90
14737;DHT22;7459;53.590;10.062;2023-03-14T12:59:31;6.80;99.90
14737;DHT22;7459;53.590;10.062;2023-03-14T13:07:02;6.80;99.90
14737;DHT22;7459;53.590;10.062;2023-03-14T13:11:55;6.90;99.90
14737;DHT22;7459;53.590;10.062;2023-03-14T13:14:23;6.90;99.90
14737;DHT22;7459;53.590;10.062;2023-03-14T13:16:49;6.90;99.90
14737;DHT22;7459;53.590;10.062;2023-03-14T13:19:26;6.90;99.90
14737;DHT22;7459;53.590;10.062;2023-03-14T13:22:03;6.90;99.90
14737;DHT22;7459;53.590;10.062;2023-03-14T13:24:33;7.00;99.90
14737;DHT22;7459;53.590;10.062;2023-03-14T13:27:00;7.00;99.90
14737;DHT22;7459;53.590;10.062;2023-03-14T13:29:28;7.10;99.90
14737;DHT22;7459;53.590;10.062;2023-03-14T13:32:01;7.10;99.90
14737;DHT22;7459;53.590;10.062;2023-03-14T13:34:35;7.00;99.90
14737;DHT22;7459;53.590;10.062;2023-03-14T13:37:01;7.00;99.90
14737;DHT22;7459;53.590;10.062;2023-03-14T13:39:28;7.00;99.90
14737;DHT22;7459;53.590;10.062;2023-03-14T13:41:58;7.00;99.90
14737;DHT22;7459;53.590;10.062;2023-03-14T13:44:30;7.00;99.90
14737;DHT22;7459;53.590;10.062;2023-03-14T13:47:02;7.00;99.90
14737;DHT22;7459;53.590;10.062;2023-03-14T13:49:30;6.90;99.90
14737;DHT22;7459;53.590;10.062;2023-03-14T13:51:59;6.90;99.90
14737;DHT22;7459;53.590;10.062;2023-03-14T13:54:26;6.90;99.90
14737;DHT22;7459;53.590;10.062;2023-03-14T13:57:00;7.00;99.90
14737;DHT22;7459;53.590;10.062;2023-03-14T13:59:34;7.00;99.90
14737;DHT22;7459;53.590;10.062;2023-03-14T14:02:04;7.00;99.90
14737;DHT22;7459;53.590;10.062;2023-03-14T14:04:38;7.00;99.90
14737;DHT22;7459;53.590;10.062;2023-03-14T14:07:10;6.90;99.90
14737;DHT22;7459;53.590;10.062;2023-03-14T14:09:41;6.90;99.90
14737;DHT22;7459;53.590;10.062;2023-03-14T14:17:17;6.80;99.90
14737;DHT22;7459;53.590;10.062;2023-03-14T14:19:46;6.90;99.90
14737;DHT22;7459;53.590;10.062;2023-03-14T14:22:12;6.90;99.90
14737;DHT22;7459;53.590;10.062;2023-03-14T14:24:38;6.90;99.90
14737;DHT22;7459;53.590;10.062;2023-03-14T14:27:17;7.00;99.90
14737;DHT22;7459;53.590;10.062;2023-03-14T14:30:02;7.00;99.90
14737;DHT22;7459;53.590;10.062;2023-03-14T14:32:36;7.00;99.90
14737;DHT22;7459;53.590;10.062;2023-03-14T14:35:03;7.00;99.90
14737;DHT22;7459;53.590;10.062;2023-03-14T14:37:34;7.00;99.90
14737;DHT22;7459;53.590;10.062;2023-03-14T14:40:13;7.00;99.90
14737;DHT22;7459;53.590;10.062;2023-03-14T14:42:42;7.00;99.90
14737;DHT22;7459;53.590;10.062;2023-03-14T14:45:14;7.00;99.90
14737;DHT22;7459;53.590;10.062;2023-03-14T14:47:58;6.90;99.90
14737;DHT22;7459;53.590;10.062;2023-03-14T14:50:48;6.90;99.90
14737;DHT22;7459;53.590;10.062;2023-03-14T14:53:38;6.80;99.20
14737;DHT22;7459;53.590;10.062;2023-03-14T14:56:19;6.80;99.90
14737;DHT22;7459;53.590;10.062;2023-03-14T14:58:50;6.80;99.90
14737;DHT22;7459;53.590;10.062;2023-03-14T15:01:23;6.90;99.90
14737;DHT22;7459;53.590;10.062;2023-03-14T15:03:52;7.00;99.90
14737;DHT22;7459;53.590;10.062;2023-03-14T15:06:19;7.00;99.90
14737;DHT22;7459;53.590;10.062;2023-03-14T15:08:46;7.10;99.90
14737;DHT22;7459;53.590;10.062;2023-03-14T15:11:19;7.10;99.60
14737;DHT22;7459;53.590;10.062;2023-03-14T15:13:48;7.20;99.90
14737;DHT22;7459;53.590;10.062;2023-03-14T15:16:18;7.20;99.90
14737;DHT22;7459;53.590;10.062;2023-03-14T15:18:57;7.30;99.90
14737;DHT22;7459;53.590;10.062;2023-03-14T15:21:25;7.20;99.90
14737;DHT22;7459;53.590;10.062;2023-03-14T15:23:52;7.20;99.90
14737;DHT22;7459;53.590;10.062;2023-03-14T15:26:21;7.00;99.90
14737;DHT22;7459;53.590;10.062;2023-03-14T15:28:48;6.90;99.90
14737;DHT22;7459;53.590;10.062;2023-03-14T15:31:15;6.90;99.90
14737;DHT22;7459;53.590;10.062;2023-03-14T15:33:43;6.90;99.90
14737;DHT22;7459;53.590;10.062;2023-03-14T15:36:23;6.90;99.90
14737;DHT22;7459;53.590;10.062;2023-03-14T15:38:51;6.90;99.90
14737;DHT22;7459;53.590;10.062;2023-03-14T15:41:18;6.90;99.90
14737;DHT22;7459;53.590;10.062;2023-03-14T15:43:44;6.90;99.90
14737;DHT22;7459;53.590;10.062;2023-03-14T15:46:11;6.90;99.90
14737;DHT22;7459;53.590;10.062;2023-03-14T15:48:37;6.90;99.90
14737;DHT22;7459;53.590;10.062;2023-03-14T15:51:02;6.90;99.90
14737;DHT22;7459;53.590;10.062;2023-03-14T15:53:28;6.80;99.90
14737;DHT22;7459;53.590;10.062;2023-03-14T15:55:54;6.80;99.90
14737;DHT22;7459;53.590;10.062;2023-03-14T15:58:20;6.80;99.90
14737;DHT22;7459;53.590;10.062;2023-03-14T16:00:46;6.80;99.90
14737;DHT22;7459;53.590;10.062;2023-03-14T16:03:12;6.80;99.90
14737;DHT22;7459;53.590;10.062;2023-03-14T16:05:39;6.80;99.90
14737;DHT22;7459;53.590;10.062;2023-03-14T16:08:06;6.80;99.90
14737;DHT22;7459;53.590;10.062;2023-03-14T16:10:32;6.60;99.90
14737;DHT22;7459;53.590;10.062;2023-03-14T16:12:58;6.50;99.90
14737;DHT22;7459;53.590;10.062;2023-03-14T16:15:24;6.50;99.90
14737;DHT22;7459;53.590;10.062;2023-03-14T16:17:53;6.50;99.90
14737;DHT22;7459;53.590;10.062;2023-03-14T16:20:19;6.50;99.90
14737;DHT22;7459;53.590;10.062;2023-03-14T16:22:45;6.40;99.90
14737;DHT22;7459;53.590;10.062;2023-03-14T16:25:11;6.40;99.90
14737;DHT22;7459;53.590;10.062;2023-03-14T16:27:38;6.30;99.90
14737;DHT22;7459;53.590;10.062;2023-03-14T16:30:04;6.30;99.90
14737;DHT22;7459;53.590;10.062;2023-03-14T16:32:30;6.30;99.90
14737;DHT22;7459;53.590;10.062;2023-03-14T16:34:56;6.30;99.90
14737;DHT22;7459;53.590;10.062;2023-03-14T16:37:23;6.30;99.90
14737;DHT22;7459;53.590;10.062;2023-03-14T16:39:49;6.30;99.90